createdAt,value
2023-02-28T00:01:40.666Z,100.00
2023-02-28T00:04:10.273Z,100.00
2023-02-28T00:06:37.994Z,100.00
2023-02-28T00:09:05.722Z,100.00
2023-02-28T00:11:33.445Z,100.00
2023-02-28T00:14:01.180Z,100.00
2023-02-28T00:16:30.344Z,100.00
2023-02-28T00:18:58.152Z,100.00
2023-02-28T00:21:25.925Z,100.00
2023-02-28T00:23:53.688Z,100.00
2023-02-28T00:26:22.018Z,100.00
2023-02-28T00:28:49.962Z,100.00
2023-02-28T00:31:17.672Z,100.00
2023-02-28T00:33:47.089Z,100.00
2023-02-28T00:36:14.804Z,100.00
2023-02-28T00:38:43.027Z,100.00
2023-02-28T00:41:11.249Z,100.00
2023-02-28T00:43:40.619Z,100.00
2023-02-28T00:46:09.108Z,100.00
2023-02-28T00:48:37.199Z,100.00
2023-02-28T00:51:07.157Z,100.00
2023-02-28T00:53:34.974Z,100.00
2023-02-28T00:56:02.941Z,99.54
2023-02-28T00:58:31.336Z,97.05
2023-02-28T01:00:59.117Z,95.10
2023-02-28T01:03:26.837Z,93.80
2023-02-28T01:05:55.011Z,94.48
2023-02-28T01:08:24.171Z,93.59
2023-02-28T01:10:52.160Z,92.57
2023-02-28T01:13:20.142Z,92.73
2023-02-28T01:15:51.865Z,99.22
2023-02-28T01:18:19.660Z,99.39
2023-02-28T01:20:47.322Z,99.75
2023-02-28T01:23:15.053Z,100.00
2023-02-28T01:25:44.139Z,100.00
2023-02-28T01:28:11.879Z,100.00
2023-02-28T01:30:39.627Z,100.00
2023-02-28T01:33:07.312Z,100.00
2023-02-28T01:35:35.519Z,100.00
2023-02-28T01:38:19.356Z,100.00
2023-02-28T01:40:50.164Z,98.34
2023-02-28T01:43:22.621Z,100.00
2023-02-28T01:45:50.409Z,100.00
2023-02-28T01:48:18.142Z,99.17
2023-02-28T01:50:47.511Z,98.22
2023-02-28T01:53:16.948Z,99.65
2023-02-28T01:55:49.314Z,99.67
2023-02-28T01:58:18.369Z,100.00
2023-02-28T02:00:46.141Z,100.00
2023-02-28T02:03:17.346Z,100.00
2023-02-28T02:05:48.435Z,100.00
2023-02-28T02:08:19.777Z,100.00
2023-02-28T02:10:50.330Z,100.00
2023-02-28T02:13:47.721Z,100.00
2023-02-28T02:16:25.891Z,100.00
2023-02-28T02:18:55.666Z,100.00
2023-02-28T02:21:53.754Z,100.00
2023-02-28T02:24:50.769Z,97.47
2023-02-28T02:27:23.089Z,96.50
2023-02-28T02:30:11.061Z,94.30
2023-02-28T02:33:12.321Z,93.03
2023-02-28T02:35:43.665Z,93.07
2023-02-28T02:38:16.199Z,93.51
2023-02-28T02:40:45.859Z,94.06
2023-02-28T02:43:17.283Z,93.91
2023-02-28T02:45:48.664Z,94.42
2023-02-28T02:48:19.434Z,94.27
2023-02-28T02:50:51.693Z,94.08
2023-02-28T02:53:21.477Z,93.20
2023-02-28T02:55:55.429Z,93.72
2023-02-28T02:58:27.339Z,93.78
2023-02-28T03:00:57.067Z,93.48
2023-02-28T03:03:29.786Z,92.62
2023-02-28T03:05:59.995Z,92.39
2023-02-28T03:08:28.511Z,92.88
2023-02-28T03:10:59.653Z,92.44
2023-02-28T03:13:45.655Z,93.50
2023-02-28T03:16:34.923Z,93.48
2023-02-28T03:19:27.623Z,94.01
2023-02-28T03:22:18.676Z,93.56
2023-02-28T03:24:52.781Z,94.75
2023-02-28T03:27:25.925Z,95.25
2023-02-28T03:29:59.527Z,95.57
2023-02-28T03:32:29.919Z,100.00
2023-02-28T03:35:01.244Z,100.00
2023-02-28T03:37:31.191Z,100.00
2023-02-28T03:40:02.877Z,100.00
2023-02-28T03:42:32.136Z,100.00
2023-02-28T03:45:01.818Z,100.00
2023-02-28T03:47:31.588Z,99.98
2023-02-28T03:50:01.423Z,100.00
2023-02-28T03:52:34.392Z,100.00
2023-02-28T03:55:07.455Z,100.00
2023-02-28T03:57:39.872Z,99.71
2023-02-28T04:00:13.240Z,100.00
2023-02-28T04:02:40.996Z,100.00
2023-02-28T04:05:09.475Z,100.00
2023-02-28T04:07:38.539Z,100.00
2023-02-28T04:10:07.383Z,100.00
2023-02-28T04:12:35.047Z,100.00
2023-02-28T04:15:02.763Z,100.00
2023-02-28T04:17:30.431Z,100.00
2023-02-28T04:19:58.551Z,100.00
2023-02-28T04:22:27.835Z,100.00
2023-02-28T04:24:56.926Z,100.00
2023-02-28T04:27:24.607Z,100.00
2023-02-28T04:29:52.326Z,100.00
2023-02-28T04:32:20.118Z,100.00
2023-02-28T04:34:47.803Z,100.00
2023-02-28T04:37:15.538Z,100.00
2023-02-28T04:39:43.726Z,100.00
2023-02-28T04:42:13.355Z,100.00
2023-02-28T04:44:41.098Z,100.00
2023-02-28T04:47:08.844Z,100.00
2023-02-28T04:49:36.586Z,100.00
2023-02-28T04:52:04.554Z,100.00
2023-02-28T04:54:32.225Z,100.00
2023-02-28T04:56:59.946Z,100.00
2023-02-28T04:59:29.077Z,100.00
2023-02-28T05:01:56.791Z,100.00
2023-02-28T05:04:24.544Z,100.00
2023-02-28T05:06:52.240Z,100.00
2023-02-28T05:09:19.952Z,100.00
2023-02-28T05:11:47.596Z,100.00
2023-02-28T05:14:16.097Z,100.00
2023-02-28T05:16:45.196Z,100.00
2023-02-28T05:19:12.865Z,100.00
2023-02-28T05:21:42.174Z,100.00
2023-02-28T05:24:12.912Z,100.00
2023-02-28T05:26:42.876Z,100.00
2023-02-28T05:29:11.085Z,100.00
2023-02-28T05:31:38.848Z,100.00
2023-02-28T05:34:08.225Z,100.00
2023-02-28T05:36:35.959Z,100.00
2023-02-28T05:39:04.256Z,100.00
2023-02-28T05:41:32.248Z,100.00
2023-02-28T05:44:00.685Z,100.00
2023-02-28T05:46:28.409Z,100.00
2023-02-28T05:48:56.861Z,100.00
2023-02-28T05:51:25.859Z,100.00
2023-02-28T05:53:53.632Z,100.00
2023-02-28T05:56:21.268Z,100.00
2023-02-28T05:58:48.907Z,100.00
2023-02-28T06:01:25.227Z,100.00
2023-02-28T06:03:53.128Z,100.00
2023-02-28T06:06:20.887Z,100.00
2023-02-28T06:08:50.024Z,100.00
2023-02-28T06:11:17.788Z,100.00
2023-02-28T06:13:45.717Z,100.00
2023-02-28T06:16:13.666Z,100.00
2023-02-28T06:18:41.484Z,100.00
2023-02-28T06:21:09.927Z,100.00
2023-02-28T06:23:37.853Z,100.00
2023-02-28T06:26:07.285Z,100.00
2023-02-28T06:28:34.940Z,100.00
2023-02-28T06:31:08.747Z,100.00
2023-02-28T06:33:36.915Z,100.00
2023-02-28T06:36:05.172Z,100.00
2023-02-28T06:38:32.852Z,100.00
2023-02-28T06:41:01.209Z,100.00
2023-02-28T06:43:33.298Z,100.00
2023-02-28T06:46:02.399Z,93.76
2023-02-28T06:48:30.267Z,89.36
2023-02-28T06:51:04.763Z,86.34
2023-02-28T06:53:32.549Z,85.53
2023-02-28T06:56:00.201Z,85.12
2023-02-28T06:58:27.937Z,84.54
2023-02-28T07:00:57.155Z,86.04
2023-02-28T07:03:25.052Z,87.38
2023-02-28T07:05:52.827Z,88.68
2023-02-28T07:08:20.492Z,89.36
2023-02-28T07:10:48.161Z,89.91
2023-02-28T07:13:15.818Z,88.27
2023-02-28T07:15:44.322Z,87.16
2023-02-28T07:18:13.415Z,86.00
2023-02-28T07:20:41.125Z,84.47
2023-02-28T07:23:08.761Z,83.98
2023-02-28T07:25:36.496Z,83.68
2023-02-28T07:28:04.245Z,81.53
2023-02-28T07:30:31.913Z,79.22
2023-02-28T07:32:59.622Z,77.14
2023-02-28T07:35:28.693Z,74.84
2023-02-28T07:37:56.358Z,72.91
2023-02-28T07:40:24.078Z,71.28
2023-02-28T07:42:51.795Z,67.71
2023-02-28T07:45:20.475Z,65.62
2023-02-28T07:47:48.223Z,64.51
2023-02-28T07:50:17.445Z,62.19
2023-02-28T07:52:46.513Z,60.02
2023-02-28T07:55:14.666Z,60.06
2023-02-28T07:57:42.655Z,58.80
2023-02-28T08:00:13.649Z,56.07
2023-02-28T08:02:41.552Z,54.54
2023-02-28T08:05:10.160Z,53.18
2023-02-28T08:07:37.841Z,52.20
2023-02-28T08:10:08.173Z,50.94
2023-02-28T08:12:35.909Z,50.21
2023-02-28T08:15:03.572Z,48.24
2023-02-28T08:17:32.385Z,47.64
2023-02-28T08:20:00.935Z,46.12
2023-02-28T08:22:28.596Z,46.59
2023-02-28T08:24:56.253Z,44.99
2023-02-28T08:27:25.406Z,45.01
2023-02-28T08:29:53.070Z,47.45
2023-02-28T08:32:29.258Z,46.01
2023-02-28T08:34:58.283Z,46.39
2023-02-28T08:37:26.253Z,46.00
2023-02-28T08:39:56.245Z,45.28
2023-02-28T08:42:25.948Z,45.89
2023-02-28T08:44:53.620Z,46.92
2023-02-28T08:47:21.713Z,44.93
2023-02-28T08:49:49.406Z,43.75
2023-02-28T08:52:17.094Z,41.91
2023-02-28T08:54:44.708Z,41.16
2023-02-28T08:57:12.389Z,41.80
2023-02-28T08:59:41.637Z,40.98
2023-02-28T09:02:10.815Z,41.29
2023-02-28T09:04:38.472Z,41.87
2023-02-28T09:07:06.126Z,42.48
2023-02-28T09:09:33.867Z,43.89
2023-02-28T09:12:01.607Z,43.12
2023-02-28T09:14:29.447Z,42.43
2023-02-28T09:16:58.520Z,42.61
2023-02-28T09:19:26.208Z,42.66
2023-02-28T09:21:53.825Z,42.75
2023-02-28T09:24:21.608Z,41.53
2023-02-28T09:27:03.823Z,40.86
2023-02-28T09:29:32.445Z,41.20
2023-02-28T09:32:01.976Z,40.69
2023-02-28T09:34:31.937Z,40.45
2023-02-28T09:36:59.874Z,40.40
2023-02-28T09:39:29.484Z,40.46
2023-02-28T09:41:58.819Z,39.65
2023-02-28T09:44:31.126Z,40.43
2023-02-28T09:47:02.596Z,41.07
2023-02-28T09:49:36.875Z,39.98
2023-02-28T09:52:10.018Z,39.99
2023-02-28T09:54:38.664Z,39.53
2023-02-28T09:57:10.842Z,38.67
2023-02-28T09:59:47.868Z,39.08
2023-02-28T10:02:23.555Z,38.68
2023-02-28T10:04:56.155Z,38.14
2023-02-28T10:07:36.189Z,37.80
2023-02-28T10:10:06.918Z,39.76
2023-02-28T10:12:35.324Z,39.21
2023-02-28T10:15:03.729Z,38.33
2023-02-28T10:17:49.332Z,38.13
2023-02-28T10:20:30.746Z,38.82
2023-02-28T10:23:01.016Z,38.02
2023-02-28T10:25:30.758Z,37.56
2023-02-28T10:28:03.243Z,37.13
2023-02-28T10:30:30.957Z,38.48
2023-02-28T10:33:00.041Z,37.42
2023-02-28T10:35:28.729Z,37.80
2023-02-28T10:37:57.874Z,37.75
2023-02-28T10:40:33.355Z,36.81
2023-02-28T10:43:02.935Z,36.70
2023-02-28T10:45:32.827Z,38.19
2023-02-28T10:48:05.326Z,38.85
2023-02-28T10:50:38.974Z,38.69
2023-02-28T10:53:36.034Z,38.21
2023-02-28T10:56:18.500Z,40.27
2023-02-28T10:58:55.730Z,41.53
2023-02-28T11:01:25.452Z,40.73
2023-02-28T11:03:55.047Z,41.00
2023-02-28T11:06:24.266Z,40.15
2023-02-28T11:08:54.151Z,40.49
2023-02-28T11:11:24.015Z,40.07
2023-02-28T11:13:54.639Z,41.45
2023-02-28T11:16:22.984Z,41.16
2023-02-28T11:18:52.375Z,40.42
2023-02-28T11:21:24.391Z,41.12
2023-02-28T11:23:53.915Z,40.86
2023-02-28T11:26:39.892Z,40.56
2023-02-28T11:29:23.534Z,40.05
2023-02-28T11:32:14.360Z,41.20
2023-02-28T11:34:43.372Z,41.18
2023-02-28T11:37:15.915Z,41.81
2023-02-28T11:39:43.899Z,42.57
2023-02-28T11:42:33.383Z,41.67
2023-02-28T11:45:12.020Z,40.66
2023-02-28T11:47:44.829Z,39.97
2023-02-28T11:50:23.354Z,40.11
2023-02-28T11:52:54.616Z,40.16
2023-02-28T11:55:26.779Z,39.40
2023-02-28T11:58:19.054Z,38.93
2023-02-28T12:00:59.885Z,39.61
2023-02-28T12:03:36.043Z,39.13
2023-02-28T12:06:12.079Z,39.05
2023-02-28T12:08:53.649Z,39.97
2023-02-28T12:11:30.443Z,39.85
2023-02-28T12:14:15.558Z,39.79
2023-02-28T12:16:57.504Z,39.36
2023-02-28T12:19:27.465Z,39.52
2023-02-28T12:22:23.372Z,38.72
2023-02-28T12:27:48.442Z,39.66
2023-02-28T12:30:19.815Z,38.53
2023-02-28T12:32:49.661Z,39.35
2023-02-28T12:35:21.791Z,39.15
2023-02-28T12:37:52.330Z,38.84
2023-02-28T12:40:23.391Z,37.57
2023-02-28T12:42:55.116Z,38.54
2023-02-28T12:45:24.582Z,38.02
2023-02-28T12:47:57.549Z,39.35
2023-02-28T12:50:26.424Z,38.35
2023-02-28T12:52:58.276Z,38.94
2023-02-28T12:55:32.036Z,38.70
2023-02-28T12:58:09.572Z,37.84
2023-02-28T13:00:39.026Z,37.92
2023-02-28T13:03:37.000Z,38.58
2023-02-28T13:06:17.378Z,38.95
2023-02-28T13:09:11.125Z,39.56
2023-02-28T13:11:45.799Z,40.61
2023-02-28T13:14:37.388Z,41.14
2023-02-28T13:17:13.193Z,40.65
2023-02-28T13:19:43.418Z,40.17
2023-02-28T13:22:19.659Z,39.27
2023-02-28T13:24:49.720Z,40.47
2023-02-28T13:27:40.305Z,40.67
2023-02-28T13:30:44.948Z,40.54
2023-02-28T13:33:31.134Z,40.14
2023-02-28T13:36:14.619Z,40.35
2023-02-28T13:38:43.532Z,39.14
2023-02-28T13:41:57.122Z,39.89
2023-02-28T13:44:27.669Z,39.87
2023-02-28T13:47:24.783Z,39.27
2023-02-28T13:49:54.879Z,39.69
2023-02-28T13:52:24.829Z,41.04
2023-02-28T13:55:23.686Z,39.57
2023-02-28T13:58:05.261Z,39.35
2023-02-28T14:00:42.407Z,39.09
2023-02-28T14:03:28.555Z,38.44
2023-02-28T14:06:19.211Z,39.27
2023-02-28T14:08:54.580Z,38.59
2023-02-28T14:11:33.661Z,38.64
2023-02-28T14:14:02.020Z,39.24
2023-02-28T14:16:40.138Z,39.10
2023-02-28T14:19:13.635Z,39.22
2023-02-28T14:21:50.655Z,37.17
2023-02-28T14:24:50.996Z,37.31
2023-02-28T14:27:36.811Z,36.75
2023-02-28T14:30:45.933Z,36.90
2023-02-28T14:33:25.010Z,36.73
2023-02-28T14:36:03.038Z,37.18
2023-02-28T14:38:34.073Z,37.66
2023-02-28T14:41:05.632Z,37.24
2023-02-28T14:43:33.326Z,38.13
2023-02-28T14:46:03.066Z,38.64
2023-02-28T14:48:30.751Z,37.97
2023-02-28T14:50:59.710Z,37.88
2023-02-28T14:53:28.543Z,37.50
2023-02-28T14:55:57.783Z,37.66
2023-02-28T14:58:27.571Z,36.99
2023-02-28T15:00:57.347Z,37.14
2023-02-28T15:03:29.722Z,37.34
2023-02-28T15:05:59.628Z,36.67
2023-02-28T15:08:30.111Z,36.91
2023-02-28T15:11:01.508Z,36.52
2023-02-28T15:13:37.705Z,38.48
2023-02-28T15:16:07.212Z,38.24
2023-02-28T15:18:42.647Z,38.19
2023-02-28T15:21:15.266Z,39.33
2023-02-28T15:23:45.944Z,39.31
2023-02-28T15:26:16.643Z,38.57
2023-02-28T15:28:44.608Z,38.14
2023-02-28T15:31:23.720Z,39.02
2023-02-28T15:33:56.520Z,39.08
2023-02-28T15:36:28.759Z,39.88
2023-02-28T15:39:01.575Z,39.33
2023-02-28T15:41:40.011Z,39.81
2023-02-28T15:44:30.197Z,40.21
2023-02-28T15:47:02.367Z,40.46
2023-02-28T15:49:31.983Z,39.58
2023-02-28T15:52:01.783Z,39.46
2023-02-28T15:54:31.525Z,38.92
2023-02-28T15:57:05.527Z,39.11
2023-02-28T15:59:33.398Z,39.26
2023-02-28T16:02:18.882Z,38.89
2023-02-28T16:05:14.654Z,39.50
2023-02-28T16:07:43.986Z,39.81
2023-02-28T16:10:15.137Z,39.99
2023-02-28T16:12:44.756Z,39.97
2023-02-28T16:15:21.069Z,40.12
2023-02-28T16:17:49.134Z,39.99
2023-02-28T16:20:17.843Z,39.12
2023-02-28T16:22:46.563Z,39.08
2023-02-28T16:25:15.070Z,39.58
2023-02-28T16:27:46.145Z,39.26
2023-02-28T16:30:21.553Z,39.66
2023-02-28T16:32:49.716Z,39.19
2023-02-28T16:35:18.822Z,39.97
2023-02-28T16:37:46.968Z,40.20
2023-02-28T16:40:18.967Z,40.29
2023-02-28T16:42:49.177Z,40.70
2023-02-28T16:45:22.191Z,40.17
2023-02-28T16:47:49.970Z,40.98
2023-02-28T16:50:19.874Z,41.52
2023-02-28T16:52:47.691Z,41.16
2023-02-28T16:55:15.539Z,41.11
2023-02-28T16:57:43.925Z,41.53
2023-02-28T17:00:16.298Z,41.93
2023-02-28T17:02:44.175Z,41.74
2023-02-28T17:05:14.043Z,41.87
2023-02-28T17:07:41.915Z,42.26
2023-02-28T17:10:16.052Z,42.48
2023-02-28T17:12:43.705Z,42.43
2023-02-28T17:15:12.776Z,42.36
2023-02-28T17:17:42.744Z,42.79
2023-02-28T17:20:14.521Z,43.40
2023-02-28T17:22:42.399Z,43.50
2023-02-28T17:25:12.108Z,43.70
2023-02-28T17:27:39.919Z,43.98
2023-02-28T17:30:16.394Z,44.73
2023-02-28T17:32:45.577Z,44.71
2023-02-28T17:35:13.375Z,44.54
2023-02-28T17:37:41.184Z,45.89
2023-02-28T17:40:16.777Z,47.98
2023-02-28T17:42:44.680Z,49.98
2023-02-28T17:45:13.348Z,50.09
2023-02-28T17:47:41.388Z,50.91
2023-02-28T17:50:13.837Z,51.78
2023-02-28T17:52:41.549Z,52.33
2023-02-28T17:55:11.435Z,54.55
2023-02-28T17:57:39.228Z,54.91
2023-02-28T18:00:08.479Z,56.10
2023-02-28T18:02:36.360Z,55.97
2023-02-28T18:05:05.434Z,56.29
2023-02-28T18:07:34.567Z,57.15
2023-02-28T18:10:04.169Z,57.77
2023-02-28T18:12:32.288Z,58.42
2023-02-28T18:15:01.783Z,58.34
2023-02-28T18:17:29.527Z,59.02
2023-02-28T18:19:57.221Z,58.98
2023-02-28T18:22:24.871Z,60.99
2023-02-28T18:24:53.844Z,60.56
2023-02-28T18:27:21.535Z,59.38
2023-02-28T18:29:53.027Z,59.88
2023-02-28T18:32:20.989Z,59.94
2023-02-28T18:34:48.840Z,60.20
2023-02-28T18:37:18.526Z,59.90
2023-02-28T18:39:46.383Z,60.51
2023-02-28T18:42:15.419Z,60.86
2023-02-28T18:44:43.135Z,60.26
2023-02-28T18:47:11.048Z,63.45
2023-02-28T18:49:38.739Z,64.97
2023-02-28T18:52:06.513Z,64.92
2023-02-28T18:54:34.235Z,65.38
2023-02-28T18:57:01.913Z,66.42
2023-02-28T18:59:31.198Z,67.74
2023-02-28T19:01:59.344Z,67.28
2023-02-28T19:04:27.092Z,66.91
2023-02-28T19:06:54.785Z,67.46
2023-02-28T19:09:22.793Z,66.41
2023-02-28T19:11:50.443Z,67.88
2023-02-28T19:14:18.176Z,67.28
2023-02-28T19:16:47.605Z,67.84
2023-02-28T19:19:15.421Z,68.02
2023-02-28T19:21:43.052Z,68.12
2023-02-28T19:24:10.704Z,68.09
2023-02-28T19:26:38.398Z,67.64
2023-02-28T19:29:06.889Z,67.86
2023-02-28T19:31:34.839Z,68.83
2023-02-28T19:34:03.967Z,69.79
2023-02-28T19:36:31.790Z,70.36
2023-02-28T19:38:59.511Z,70.89
2023-02-28T19:41:27.178Z,71.51
2023-02-28T19:43:55.250Z,71.75
2023-02-28T19:46:23.165Z,71.28
2023-02-28T19:48:54.331Z,71.23
2023-02-28T19:51:24.074Z,71.63
2023-02-28T19:53:51.993Z,72.66
2023-02-28T19:56:19.766Z,72.62
2023-02-28T19:58:47.674Z,72.96
2023-02-28T20:01:17.805Z,71.80
2023-02-28T20:03:48.925Z,71.08
2023-02-28T20:06:16.649Z,70.17
2023-02-28T20:08:45.637Z,69.47
2023-02-28T20:11:15.077Z,70.37
2023-02-28T20:13:42.872Z,70.40
2023-02-28T20:16:12.220Z,69.36
2023-02-28T20:18:40.635Z,70.17
2023-02-28T20:21:09.842Z,68.80
2023-02-28T20:23:38.822Z,69.88
2023-02-28T20:26:08.356Z,70.76
2023-02-28T20:28:36.080Z,71.93
2023-02-28T20:31:03.846Z,76.74
2023-02-28T20:33:31.554Z,77.56
2023-02-28T20:36:00.335Z,77.63
2023-02-28T20:38:28.156Z,77.74
2023-02-28T20:40:56.292Z,76.30
2023-02-28T20:43:25.416Z,75.67
2023-02-28T20:45:53.556Z,74.47
2023-02-28T20:48:22.075Z,76.20
2023-02-28T20:50:50.768Z,76.31
2023-02-28T20:53:18.928Z,77.15
2023-02-28T20:55:55.434Z,77.88
2023-02-28T20:58:24.944Z,77.50
2023-02-28T21:00:53.022Z,77.52
2023-02-28T21:03:20.697Z,77.26
2023-02-28T21:05:48.445Z,77.02
2023-02-28T21:08:16.164Z,79.33
2023-02-28T21:10:43.884Z,76.04
2023-02-28T21:13:11.607Z,75.57
2023-02-28T21:15:40.730Z,75.45
2023-02-28T21:18:08.838Z,76.79
2023-02-28T21:20:36.557Z,80.23
2023-02-28T21:23:04.615Z,80.20
2023-02-28T21:25:33.941Z,80.94
2023-02-28T21:28:01.619Z,81.10
2023-02-28T21:30:29.339Z,80.85
2023-02-28T21:32:58.669Z,79.88
2023-02-28T21:35:26.477Z,79.30
2023-02-28T21:37:54.143Z,80.46
2023-02-28T21:40:21.874Z,80.59
2023-02-28T21:42:49.534Z,81.50
2023-02-28T21:45:17.297Z,81.21
2023-02-28T21:47:45.050Z,82.18
2023-02-28T21:50:14.755Z,86.35
2023-02-28T21:52:42.767Z,86.09
2023-02-28T21:55:11.108Z,85.19
2023-02-28T21:57:38.839Z,85.59
2023-02-28T22:00:08.764Z,85.82
2023-02-28T22:02:38.219Z,84.88
2023-02-28T22:05:06.470Z,85.19
2023-02-28T22:07:35.476Z,84.88
2023-02-28T22:10:03.154Z,84.97
2023-02-28T22:12:31.156Z,85.89
2023-02-28T22:14:58.819Z,88.59
2023-02-28T22:17:26.459Z,88.73
2023-02-28T22:19:54.143Z,87.75
2023-02-28T22:22:21.844Z,89.23
2023-02-28T22:24:50.946Z,87.35
2023-02-28T22:27:18.682Z,86.66
2023-02-28T22:29:47.445Z,86.95
2023-02-28T22:32:15.789Z,86.07
2023-02-28T22:34:43.514Z,85.70
2023-02-28T22:37:11.177Z,84.87
2023-02-28T22:39:38.821Z,83.57
2023-02-28T22:42:07.952Z,82.53
2023-02-28T22:44:35.682Z,84.76
2023-02-28T22:47:03.534Z,86.00
2023-02-28T22:49:31.217Z,85.72
2023-02-28T22:51:58.876Z,84.77
2023-02-28T22:54:26.669Z,85.11
2023-02-28T22:56:54.318Z,86.21
2023-02-28T22:59:23.361Z,83.45
2023-02-28T23:01:50.995Z,83.63
2023-02-28T23:04:19.586Z,84.07
2023-02-28T23:06:47.377Z,84.99
2023-02-28T23:09:18.354Z,86.53
2023-02-28T23:11:48.124Z,91.22
2023-02-28T23:14:17.505Z,91.96
2023-02-28T23:16:48.298Z,90.43
2023-02-28T23:19:17.904Z,88.24
2023-02-28T23:21:46.101Z,88.14
2023-02-28T23:24:15.764Z,88.59
2023-02-28T23:26:45.314Z,88.82
2023-02-28T23:29:13.640Z,86.92
2023-02-28T23:31:41.526Z,86.51
2023-02-28T23:34:11.052Z,85.41
2023-02-28T23:36:39.209Z,85.87
2023-02-28T23:39:07.282Z,86.00
2023-02-28T23:41:34.953Z,86.09
2023-02-28T23:44:02.709Z,87.70
2023-02-28T23:46:30.579Z,89.50
2023-02-28T23:48:59.779Z,91.96
2023-02-28T23:51:28.802Z,91.94
2023-02-28T23:53:56.482Z,92.48
2023-02-28T23:56:25.366Z,91.27
2023-02-28T23:58:55.689Z,90.53
